Terminal Aerodrome Forecast
Issued by NWS Twin Cities, MN

Home | Current Version | Previous Version | Graphics & Text | Print | Product List | Glossary On
Versions: 1 2 3 4 5 6 7 8 9 10 11 12 13 14 15 16 17 18 19 20 21 22 23 24 25
000
FTUS43 KMPX 160300 AAA
TAFMSP
TAF AMD
KMSP 160300Z 1603/1706 14006KT P6SM OVC090
     FM160600 11013KT P6SM OVC070
     FM161000 09018G22KT P6SM -SN OVC050
     FM161200 09020G27KT 4SM -SN OVC035
     FM161500 09021G28KT 6SM -RA BR OVC025
     FM162100 03013G22KT 4SM -RASN OVC015
     FM170100 36015G23KT 1 1/2SM -SN OVC008=

USA.gov is the U.S. government's official web portal to all federal, state and local government web resources and services.